Time;durP1;ratioP1;P1;durP2;ratioP2;P2;SDS_P1;SDS_P2;PMS_P1;PMS_P2;Temp;Humidity;BMP_temperature;BMP_pressure;BME280_temperature;BME280_humidity;BME280_pressure;Samples;Min_cycle;Max_cycle;Signal;HPM_P1;HPM_P2
2022/03/09 00:02:01;;;;;;;7.13;4.30;;;8.00;69.30;;;;;;10474385;28;20052;-66
2022/03/09 00:07:02;;;;;;;7.20;4.13;;;8.00;69.30;;;;;;10485871;28;20071;-65
2022/03/09 00:12:04;;;;;;;12.07;5.28;;;8.00;69.40;;;;;;10488146;28;20024;-67
2022/03/09 00:17:04;;;;;;;9.65;4.93;;;8.00;69.50;;;;;;10485615;28;20449;-65
2022/03/09 00:22:05;;;;;;;10.27;4.97;;;8.00;69.60;;;;;;10474172;28;20040;-65
2022/03/09 00:27:06;;;;;;;9.02;4.43;;;7.90;69.60;;;;;;10487423;28;20020;-65
2022/03/09 00:32:07;;;;;;;11.52;4.97;;;7.90;69.70;;;;;;10482036;28;20059;-65
2022/03/09 00:37:08;;;;;;;9.43;4.53;;;7.90;69.70;;;;;;10484360;28;20044;-67
2022/03/09 00:42:08;;;;;;;9.85;5.60;;;7.90;69.70;;;;;;10483308;28;20127;-66
2022/03/09 00:47:09;;;;;;;8.60;5.25;;;7.90;69.80;;;;;;10482086;28;20064;-66
2022/03/09 00:52:10;;;;;;;8.10;4.43;;;7.90;69.80;;;;;;10481238;28;20090;-66
2022/03/09 00:57:10;;;;;;;9.48;5.00;;;7.80;69.70;;;;;;10483125;28;20040;-67
2022/03/09 01:02:11;;;;;;;9.38;5.13;;;7.80;69.80;;;;;;10472702;28;20112;-66
2022/03/09 01:07:12;;;;;;;10.93;5.30;;;7.90;69.80;;;;;;10479640;28;20032;-66
2022/03/09 01:12:13;;;;;;;12.98;5.70;;;7.80;69.80;;;;;;10485468;28;20024;-67
2022/03/09 01:17:13;;;;;;;9.27;5.18;;;7.70;69.90;;;;;;10482345;28;20391;-65
2022/03/09 01:22:14;;;;;;;9.63;5.05;;;7.70;69.80;;;;;;10471109;28;20116;-67
2022/03/09 01:27:15;;;;;;;9.45;4.50;;;7.70;69.90;;;;;;10485248;28;20050;-67
2022/03/09 01:32:16;;;;;;;10.95;5.20;;;7.80;69.90;;;;;;10481543;28;20020;-66
2022/03/09 01:37:16;;;;;;;9.45;5.38;;;7.80;69.80;;;;;;10476544;28;20552;-66
2022/03/09 01:42:17;;;;;;;9.40;4.97;;;7.60;69.80;;;;;;10473689;28;20044;-67
2022/03/09 01:47:18;;;;;;;9.52;4.93;;;7.60;69.90;;;;;;10483754;28;20028;-67
2022/03/09 01:52:19;;;;;;;10.52;5.03;;;7.60;69.90;;;;;;10480104;28;20066;-66
2022/03/09 01:57:21;;;;;;;10.20;5.25;;;7.60;70.00;;;;;;10484431;28;20047;-66
2022/03/09 02:02:22;;;;;;;8.65;5.00;;;7.60;70.00;;;;;;10483055;28;20037;-65
2022/03/09 02:09:41;;;;;;;8.38;4.80;;;7.60;70.00;;;;;;10471562;28;20040;-66
2022/03/09 02:12:43;;;;;;;9.10;4.75;;;7.60;69.90;;;;;;10455659;28;20047;-67
2022/03/09 02:17:44;;;;;;;10.77;5.43;;;7.50;69.90;;;;;;10482827;28;20040;-66
2022/03/09 02:22:44;;;;;;;10.43;5.30;;;7.50;69.80;;;;;;10474376;28;20036;-66
2022/03/09 02:27:45;;;;;;;9.52;5.18;;;7.50;69.80;;;;;;10491967;28;20117;-66
2022/03/09 02:32:50;;;;;;;9.77;5.80;;;7.50;69.80;;;;;;10489585;28;20025;-65
2022/03/09 02:37:50;;;;;;;8.77;4.85;;;7.50;69.80;;;;;;10491691;28;20375;-65
2022/03/09 02:42:51;;;;;;;10.35;5.45;;;7.60;69.90;;;;;;10490065;28;20045;-66
2022/03/09 02:47:52;;;;;;;10.95;5.60;;;7.40;69.80;;;;;;10490693;28;20406;-67
2022/03/09 02:52:53;;;;;;;10.23;5.32;;;7.40;69.80;;;;;;10485999;28;20127;-67
2022/03/09 02:57:53;;;;;;;10.75;5.53;;;7.40;69.70;;;;;;10482879;28;20024;-66
2022/03/09 03:02:54;;;;;;;12.45;5.63;;;6.40;69.20;;;;;;10488094;28;20043;-66
2022/03/09 03:07:55;;;;;;;10.13;5.22;;;7.30;69.70;;;;;;10481403;28;20075;-67
2022/03/09 03:12:56;;;;;;;9.65;5.55;;;7.30;69.70;;;;;;10481362;28;20028;-66
2022/03/09 03:17:56;;;;;;;11.13;5.93;;;7.30;69.70;;;;;;10487674;28;20055;-66
2022/03/09 03:22:57;;;;;;;12.38;6.07;;;7.30;69.60;;;;;;10478405;28;20025;-67
2022/03/09 03:27:58;;;;;;;9.98;6.07;;;7.30;69.70;;;;;;10489988;28;20103;-67
2022/03/09 03:32:59;;;;;;;12.75;5.47;;;7.20;69.60;;;;;;10486989;28;20032;-67
2022/03/09 03:37:59;;;;;;;10.30;5.15;;;7.20;69.60;;;;;;10488017;28;20028;-66
2022/03/09 03:43:00;;;;;;;10.15;5.00;;;7.20;69.70;;;;;;10487518;28;20048;-66
2022/03/09 03:48:01;;;;;;;13.07;6.13;;;7.30;69.70;;;;;;10487404;28;20020;-66
2022/03/09 03:53:03;;;;;;;10.80;5.75;;;7.50;69.80;;;;;;10487503;28;20029;-66
2022/03/09 03:58:03;;;;;;;11.95;5.93;;;7.40;69.80;;;;;;10488585;28;20695;-66
2022/03/09 04:03:05;;;;;;;12.35;6.10;;;7.10;69.70;;;;;;10483928;28;20123;-66
2022/03/09 04:08:06;;;;;;;10.35;5.03;;;7.10;69.70;;;;;;10486350;28;20037;-66
2022/03/09 04:13:07;;;;;;;12.80;6.18;;;7.10;70.30;;;;;;10487550;28;20020;-65
2022/03/09 04:18:07;;;;;;;10.75;5.40;;;7.10;69.70;;;;;;10488017;28;20075;-66
2022/03/09 04:23:10;;;;;;;14.70;5.45;;;7.10;69.70;;;;;;10476112;28;20033;-67
2022/03/09 04:28:10;;;;;;;11.02;5.63;;;7.10;69.80;;;;;;10486174;28;20548;-67
2022/03/09 04:33:11;;;;;;;11.55;5.82;;;7.00;69.70;;;;;;10473400;28;20067;-65
2022/03/09 04:38:12;;;;;;;9.40;5.70;;;7.00;69.70;;;;;;10484787;28;20055;-67
2022/03/09 04:43:12;;;;;;;12.35;5.88;;;7.00;69.70;;;;;;10485356;28;20380;-63
2022/03/09 04:48:13;;;;;;;11.05;5.95;;;7.00;69.70;;;;;;10483984;28;20599;-65
2022/03/09 04:53:14;;;;;;;11.70;5.93;;;6.90;69.60;;;;;;10484582;28;20128;-66
2022/03/09 04:58:15;;;;;;;10.02;5.72;;;6.90;69.70;;;;;;10481788;28;20106;-66
2022/03/09 05:03:15;;;;;;;10.85;5.43;;;6.90;69.70;;;;;;10470061;28;20025;-67
2022/03/09 05:08:16;;;;;;;13.20;6.03;;;6.90;69.70;;;;;;10471542;28;20041;-67
2022/03/09 05:13:20;;;;;;;10.93;5.68;;;6.90;69.60;;;;;;10484987;28;20124;-66
2022/03/09 05:18:20;;;;;;;10.63;5.63;;;6.90;69.60;;;;;;10477550;28;20054;-66
2022/03/09 05:23:21;;;;;;;10.10;5.47;;;7.00;69.60;;;;;;10475243;28;20523;-67
2022/03/09 05:28:22;;;;;;;12.10;6.03;;;6.80;69.50;;;;;;10482620;28;20509;-67
2022/03/09 05:33:23;;;;;;;12.65;5.25;;;6.80;69.50;;;;;;10480039;28;20047;-64
2022/03/09 05:38:23;;;;;;;11.45;6.10;;;6.80;69.50;;;;;;10473102;28;20029;-67
2022/03/09 05:43:24;;;;;;;10.57;5.40;;;6.80;69.40;;;;;;10481352;28;20052;-67
2022/03/09 05:48:25;;;;;;;11.75;5.82;;;6.80;69.40;;;;;;10481881;28;20036;-66
2022/03/09 05:53:25;;;;;;;10.65;5.68;;;6.90;69.40;;;;;;10478357;28;20025;-67
2022/03/09 05:58:26;;;;;;;10.65;5.32;;;6.80;69.40;;;;;;10472992;28;20050;-66
2022/03/09 06:03:27;;;;;;;13.32;5.80;;;6.70;69.30;;;;;;10482410;28;20025;-65
2022/03/09 06:08:27;;;;;;;12.05;6.30;;;6.70;69.30;;;;;;10486876;28;20035;-67
2022/03/09 06:13:28;;;;;;;12.57;5.45;;;6.70;69.40;;;;;;10491954;28;20032;-67
2022/03/09 06:18:29;;;;;;;8.77;5.18;;;6.60;69.30;;;;;;10486742;28;20041;-67
2022/03/09 06:23:30;;;;;;;9.57;5.07;;;6.70;69.40;;;;;;10482556;28;20081;-67
2022/03/09 06:28:31;;;;;;;9.43;4.88;;;6.60;69.40;;;;;;10489991;28;20024;-67
2022/03/09 06:33:32;;;;;;;9.25;5.20;;;6.60;69.40;;;;;;10493295;28;20418;-66
2022/03/09 06:38:33;;;;;;;10.43;5.32;;;6.70;69.40;;;;;;10481630;28;20051;-67
2022/03/09 06:43:34;;;;;;;9.82;5.25;;;6.60;69.30;;;;;;10490905;28;20032;-66
2022/03/09 06:48:35;;;;;;;9.93;5.13;;;6.60;69.30;;;;;;10491301;28;20098;-66
2022/03/09 06:53:36;;;;;;;9.02;5.32;;;6.60;69.30;;;;;;10488394;28;20040;-66
2022/03/09 06:58:36;;;;;;;10.93;6.03;;;6.60;69.30;;;;;;10488878;28;20406;-66
2022/03/09 07:03:37;;;;;;;12.80;5.38;;;6.70;69.30;;;;;;10490952;28;20077;-66
2022/03/09 07:08:38;;;;;;;11.05;5.40;;;6.60;69.20;;;;;;10485962;28;20036;-66
2022/03/09 07:13:40;;;;;;;12.40;5.40;;;6.80;69.20;;;;;;10489335;28;20476;-66
2022/03/09 07:18:41;;;;;;;10.73;5.38;;;6.60;69.10;;;;;;10487392;28;20036;-66
2022/03/09 07:23:42;;;;;;;9.55;5.47;;;6.90;69.30;;;;;;10485255;28;20031;-67
2022/03/09 07:28:43;;;;;;;12.43;6.20;;;6.60;69.50;;;;;;10486809;28;20441;-66
2022/03/09 07:33:44;;;;;;;12.07;5.57;;;6.70;69.30;;;;;;10486368;28;20048;-65
2022/03/09 07:38:45;;;;;;;9.30;5.32;;;6.70;69.20;;;;;;10487527;28;20048;-67
2022/03/09 07:43:45;;;;;;;10.30;5.45;;;6.70;69.00;;;;;;10486981;28;20045;-66
2022/03/09 07:48:46;;;;;;;9.30;5.13;;;6.80;69.00;;;;;;10487537;28;20033;-66
2022/03/09 07:53:47;;;;;;;10.75;5.75;;;7.00;68.80;;;;;;10486754;28;20032;-67
2022/03/09 07:58:48;;;;;;;9.45;4.93;;;7.10;68.20;;;;;;10479022;28;20041;-66
2022/03/09 08:03:49;;;;;;;10.23;4.88;;;7.30;67.70;;;;;;10484734;28;20174;-64
2022/03/09 08:08:50;;;;;;;10.82;5.38;;;7.50;67.30;;;;;;10486750;28;20032;-68
2022/03/09 08:13:50;;;;;;;9.48;5.57;;;7.60;66.90;;;;;;10453546;28;20029;-67
2022/03/09 08:18:51;;;;;;;11.68;5.60;;;7.60;66.80;;;;;;10455181;28;20033;-66
2022/03/09 08:23:52;;;;;;;10.13;5.10;;;7.70;66.60;;;;;;10452720;28;20047;-67
2022/03/09 08:28:53;;;;;;;11.18;5.30;;;7.70;66.50;;;;;;10460394;28;20123;-69
2022/03/09 08:33:55;;;;;;;13.35;6.15;;;7.70;66.40;;;;;;10456253;28;20021;-67
2022/03/09 08:38:56;;;;;;;10.68;5.93;;;7.80;66.30;;;;;;10450663;28;20044;-66
2022/03/09 08:43:56;;;;;;;10.52;5.57;;;7.80;66.30;;;;;;10453559;28;20048;-68
2022/03/09 08:48:57;;;;;;;8.63;5.57;;;7.80;66.10;;;;;;10460032;28;20027;-66
2022/03/09 08:53:58;;;;;;;9.75;5.50;;;7.90;66.10;;;;;;10456595;28;20086;-68
2022/03/09 08:58:59;;;;;;;9.43;5.30;;;7.90;65.90;;;;;;10453474;28;20036;-66
2022/03/09 09:04:00;;;;;;;12.38;5.53;;;7.90;65.90;;;;;;10450189;28;20434;-67
2022/03/09 09:09:01;;;;;;;13.48;6.10;;;7.90;65.80;;;;;;10479811;28;20395;-66
2022/03/09 09:14:02;;;;;;;11.27;5.38;;;8.00;65.80;;;;;;10473875;28;20035;-69
2022/03/09 09:19:02;;;;;;;11.63;6.30;;;8.00;66.20;;;;;;10480992;28;20036;-65
2022/03/09 09:24:04;;;;;;;11.27;6.03;;;8.10;66.00;;;;;;10444095;28;20021;-64
2022/03/09 09:29:06;;;;;;;10.48;5.57;;;8.10;65.90;;;;;;10472649;28;20495;-66
2022/03/09 09:34:08;;;;;;;8.90;4.95;;;8.20;65.80;;;;;;10478386;28;20037;-63
2022/03/09 09:39:09;;;;;;;9.07;5.47;;;8.20;65.60;;;;;;10472452;28;20041;-68
2022/03/09 09:44:11;;;;;;;11.20;5.82;;;8.30;65.60;;;;;;10479211;28;20082;-69
2022/03/09 09:49:14;;;;;;;14.43;5.00;;;8.40;66.00;;;;;;10482126;28;20120;-68
2022/03/09 09:54:15;;;;;;;12.23;5.55;;;8.40;65.40;;;;;;10481503;28;20075;-68
2022/03/09 09:59:16;;;;;;;13.20;5.32;;;8.50;65.30;;;;;;10473898;28;20037;-70
2022/03/09 10:04:17;;;;;;;10.77;5.70;;;8.50;65.20;;;;;;10481046;28;20540;-69
2022/03/09 10:09:19;;;;;;;9.50;5.13;;;8.60;65.20;;;;;;10481764;28;20505;-68
2022/03/09 10:14:38;;;;;;;10.65;5.10;;;8.80;65.10;;;;;;10480020;28;20490;-66
2022/03/09 10:19:41;;;;;;;10.20;5.35;;;8.80;64.70;;;;;;10478525;28;20056;-66
2022/03/09 10:24:42;;;;;;;14.27;5.80;;;9.00;64.80;;;;;;10471168;28;20052;-68
2022/03/09 10:29:54;;;;;;;10.00;5.10;;;8.90;64.70;;;;;;10478397;28;20131;-69
2022/03/09 10:34:55;;;;;;;10.27;5.40;;;9.00;64.50;;;;;;10478414;28;20284;-69
2022/03/09 10:40:09;;;;;;;10.57;5.95;;;9.10;64.60;;;;;;10470995;28;20404;-66
2022/03/09 10:45:10;;;;;;;11.98;5.80;;;9.20;65.00;;;;;;10480005;28;20012;-66
2022/03/09 10:50:15;;;;;;;10.73;5.40;;;9.30;64.50;;;;;;10485688;28;20047;-68
2022/03/09 10:55:42;;;;;;;10.93;5.13;;;9.40;64.30;;;;;;10487601;28;20035;-68
2022/03/09 11:00:44;;;;;;;10.20;5.30;;;9.40;63.90;;;;;;10478783;28;20094;-69
2022/03/09 11:05:50;;;;;;;10.30;5.30;;;9.50;64.10;;;;;;10487169;28;20069;-68
2022/03/09 11:10:51;;;;;;;10.10;5.60;;;9.60;64.00;;;;;;10478811;28;20051;-68
2022/03/09 11:15:54;;;;;;;11.15;5.53;;;9.70;63.90;;;;;;10477526;28;20233;-67
2022/03/09 11:20:56;;;;;;;11.65;5.63;;;9.80;64.40;;;;;;10484083;28;20822;-67
2022/03/09 11:26:21;;;;;;;12.90;6.32;;;9.80;63.60;;;;;;10470796;28;20036;-67
2022/03/09 11:31:23;;;;;;;11.50;5.40;;;9.90;63.80;;;;;;10485242;28;20036;-66
2022/03/09 11:36:24;;;;;;;11.98;5.72;;;10.00;63.50;;;;;;10486633;28;20033;-68
2022/03/09 11:41:35;;;;;;;11.70;6.25;;;10.00;63.40;;;;;;10488249;28;20048;-69
2022/03/09 11:47:15;;;;;;;11.73;6.03;;;10.10;63.30;;;;;;10488287;28;20034;-67
2022/03/09 11:52:21;;;;;;;11.52;5.95;;;10.10;62.50;;;;;;10323078;28;20034;-68
2022/03/09 11:57:24;;;;;;;11.13;5.85;;;10.20;63.00;;;;;;10443580;28;20456;-66
2022/03/09 12:02:39;;;;;;;10.63;5.88;;;10.20;63.00;;;;;;10481082;28;20043;-68
2022/03/09 12:07:40;;;;;;;10.98;6.60;;;10.30;62.40;;;;;;10470835;28;20044;-68
2022/03/09 12:13:20;;;;;;;11.55;6.47;;;10.30;62.70;;;;;;10484845;28;20040;-67
2022/03/09 12:18:38;;;;;;;11.05;6.20;;;10.40;61.90;;;;;;10483065;28;20063;-68
2022/03/09 12:24:04;;;;;;;11.77;5.75;;;10.40;62.10;;;;;;10484976;28;20436;-68
2022/03/09 12:29:27;;;;;;;11.48;6.07;;;10.50;61.70;;;;;;10483246;28;20019;-67
2022/03/09 12:34:32;;;;;;;10.95;6.35;;;10.50;61.50;;;;;;10484447;28;20056;-67
2022/03/09 12:39:33;;;;;;;10.55;5.80;;;10.50;61.90;;;;;;10473768;28;20039;-67
2022/03/09 12:44:35;;;;;;;13.70;6.03;;;10.60;61.80;;;;;;10483093;28;20056;-67
2022/03/09 12:49:44;;;;;;;12.45;6.15;;;10.60;61.80;;;;;;10483437;28;20040;-67
2022/03/09 12:54:50;;;;;;;13.95;6.90;;;10.60;61.60;;;;;;10474677;28;20025;-67
2022/03/09 13:00:10;;;;;;;11.60;5.72;;;10.60;61.50;;;;;;10472640;28;20035;-72
2022/03/09 13:05:18;;;;;;;13.77;6.25;;;10.70;60.80;;;;;;10462888;28;20501;-63
2022/03/09 13:10:19;;;;;;;12.75;6.15;;;10.70;61.30;;;;;;10450896;28;20028;-68
2022/03/09 13:15:22;;;;;;;15.30;7.40;;;10.90;60.80;;;;;;10479614;28;20037;-66
2022/03/09 13:20:22;;;;;;;16.02;6.65;;;11.20;59.60;;;;;;10464574;28;20032;-67
2022/03/09 13:25:31;;;;;;;15.90;7.68;;;11.40;59.20;;;;;;10483003;28;20434;-69
2022/03/09 13:30:32;;;;;;;13.15;7.18;;;11.60;57.90;;;;;;10476739;28;20039;-64
2022/03/09 13:35:45;;;;;;;14.32;7.15;;;11.70;58.00;;;;;;10483050;28;20903;-64
2022/03/09 13:40:46;;;;;;;17.95;7.72;;;11.90;57.80;;;;;;10473588;28;20527;-67
2022/03/09 13:45:47;;;;;;;15.52;7.28;;;12.00;57.40;;;;;;10480280;28;20028;-66
2022/03/09 13:51:00;;;;;;;15.45;8.27;;;12.10;57.20;;;;;;10467777;28;20486;-66
2022/03/09 13:56:03;;;;;;;13.57;7.50;;;12.20;55.90;;;;;;10482126;28;20107;-67
2022/03/09 14:01:06;;;;;;;16.30;7.72;;;12.30;56.30;;;;;;10476232;28;20528;-65
2022/03/09 14:06:16;;;;;;;19.40;7.80;;;12.40;56.30;;;;;;10479212;28;20032;-63
2022/03/09 14:11:25;;;;;;;17.08;8.35;;;12.60;55.60;;;;;;10479942;28;20497;-66
2022/03/09 14:16:35;;;;;;;15.65;8.73;;;12.70;55.00;;;;;;10481527;28;20178;-66
2022/03/09 14:21:36;;;;;;;19.02;9.20;;;12.90;54.70;;;;;;10484636;28;20501;-65
2022/03/09 14:26:43;;;;;;;18.35;8.80;;;13.10;54.80;;;;;;10490473;28;20127;-62
2022/03/09 14:31:46;;;;;;;16.40;7.68;;;13.30;54.50;;;;;;10487769;28;20112;-67
2022/03/09 14:36:47;;;;;;;16.55;8.50;;;13.40;54.00;;;;;;10489193;28;20529;-62
2022/03/09 14:41:49;;;;;;;19.55;9.05;;;13.40;53.70;;;;;;10469841;28;20049;-60
2022/03/09 14:46:50;;;;;;;15.32;7.90;;;13.40;53.60;;;;;;10480557;28;20371;-63
2022/03/09 14:51:52;;;;;;;16.83;8.98;;;13.40;53.60;;;;;;10483417;28;20024;-66
2022/03/09 14:56:53;;;;;;;17.45;7.85;;;13.40;53.60;;;;;;10493826;28;20543;-66
2022/03/09 15:01:54;;;;;;;16.98;8.75;;;13.40;53.50;;;;;;10465355;28;20113;-59
2022/03/09 15:06:55;;;;;;;17.58;9.43;;;13.30;53.20;;;;;;10453633;28;20025;-60
2022/03/09 15:11:56;;;;;;;18.52;10.02;;;13.30;53.20;;;;;;10432407;28;20028;-66
2022/03/09 15:16:59;;;;;;;16.38;8.43;;;13.30;53.20;;;;;;10457603;28;20029;-70
2022/03/09 15:22:00;;;;;;;17.55;9.05;;;13.20;52.90;;;;;;10455225;28;20063;-66
2022/03/09 15:27:01;;;;;;;18.17;8.82;;;13.30;53.10;;;;;;10488431;28;20124;-68
2022/03/09 15:32:03;;;;;;;18.52;9.38;;;13.20;53.30;;;;;;10483028;28;20132;-66
2022/03/09 15:37:04;;;;;;;19.52;9.30;;;12.90;53.50;;;;;;10473737;28;20071;-71
2022/03/09 15:42:06;;;;;;;15.48;8.05;;;12.70;54.10;;;;;;10487638;28;20061;-66
2022/03/09 15:47:07;;;;;;;18.02;8.50;;;12.40;54.60;;;;;;10486881;28;20157;-64
2022/03/09 15:52:10;;;;;;;17.60;9.05;;;12.30;55.20;;;;;;10485317;28;20055;-70
2022/03/09 15:57:10;;;;;;;18.15;8.57;;;12.20;56.10;;;;;;10473450;28;20525;-68
2022/03/09 16:02:14;;;;;;;16.33;8.60;;;12.10;56.50;;;;;;10485136;28;20039;-76
2022/03/09 16:07:15;;;;;;;19.38;9.38;;;12.00;56.10;;;;;;10463677;28;20032;-75
2022/03/09 16:12:15;;;;;;;17.60;8.57;;;12.10;56.80;;;;;;10486138;28;20031;-72
2022/03/09 16:17:16;;;;;;;16.40;8.57;;;12.10;57.20;;;;;;10483313;28;20028;-72
2022/03/09 16:22:17;;;;;;;19.95;8.25;;;12.10;57.50;;;;;;10476211;28;20907;-75
2022/03/09 16:27:18;;;;;;;17.83;8.55;;;12.10;57.80;;;;;;10485164;28;20475;-75
2022/03/09 16:32:21;;;;;;;19.50;8.82;;;12.10;58.20;;;;;;10460580;28;20486;-75
2022/03/09 16:37:22;;;;;;;17.92;9.07;;;12.10;58.60;;;;;;10474344;28;20090;-76
2022/03/09 16:42:22;;;;;;;16.25;8.65;;;12.10;58.70;;;;;;10438733;28;20072;-75
2022/03/09 16:47:23;;;;;;;19.02;8.52;;;12.10;59.20;;;;;;10454863;28;20521;-77
2022/03/09 16:52:24;;;;;;;18.10;8.48;;;12.10;59.60;;;;;;10470704;28;20422;-79
2022/03/09 16:57:24;;;;;;;17.23;8.60;;;12.00;59.90;;;;;;10470997;28;20482;-76
2022/03/09 17:02:26;;;;;;;18.40;8.00;;;12.00;60.30;;;;;;10483117;28;20033;-71
2022/03/09 17:07:27;;;;;;;15.98;7.55;;;12.00;60.60;;;;;;10481509;28;20032;-69
2022/03/09 17:12:28;;;;;;;15.07;7.18;;;11.90;61.10;;;;;;10484876;28;20415;-67
2022/03/09 17:17:29;;;;;;;17.02;8.32;;;11.90;61.60;;;;;;10484753;28;20043;-68
2022/03/09 17:22:31;;;;;;;17.35;7.70;;;11.80;61.90;;;;;;10483231;28;20043;-69
2022/03/09 17:27:32;;;;;;;13.43;7.03;;;11.80;62.50;;;;;;10484847;28;20028;-70
2022/03/09 17:32:33;;;;;;;13.10;7.10;;;11.80;62.70;;;;;;10483005;28;20462;-68
2022/03/09 17:37:34;;;;;;;19.10;8.65;;;11.70;62.90;;;;;;10454472;28;20082;-70
2022/03/09 17:42:37;;;;;;;17.70;9.07;;;11.60;63.00;;;;;;10405082;28;20037;-69
2022/03/09 17:47:38;;;;;;;16.40;8.45;;;11.50;63.00;;;;;;10416537;28;20048;-70
2022/03/09 17:52:38;;;;;;;20.02;9.48;;;11.20;63.50;;;;;;10421614;28;20033;-70
2022/03/09 17:57:40;;;;;;;18.95;8.82;;;11.20;63.80;;;;;;10422867;28;20037;-69
2022/03/09 18:02:41;;;;;;;20.08;10.25;;;11.20;64.00;;;;;;10412636;28;20036;-70
2022/03/09 18:07:42;;;;;;;17.35;8.60;;;11.20;64.20;;;;;;10405147;28;20028;-72
2022/03/09 18:12:43;;;;;;;15.77;7.95;;;11.20;64.30;;;;;;10414756;28;20387;-71
2022/03/09 18:17:44;;;;;;;17.95;9.18;;;11.20;64.50;;;;;;10413003;28;20124;-71
2022/03/09 18:22:45;;;;;;;16.42;8.57;;;11.20;64.60;;;;;;10418368;28;20013;-69
2022/03/09 18:27:47;;;;;;;20.42;8.55;;;11.10;64.80;;;;;;10409076;28;20065;-72
2022/03/09 18:32:48;;;;;;;15.20;8.43;;;11.10;65.00;;;;;;10424789;28;20026;-70
2022/03/09 18:37:49;;;;;;;14.75;7.95;;;11.00;65.10;;;;;;10434383;28;20033;-65
2022/03/09 18:42:50;;;;;;;17.05;8.32;;;11.00;65.20;;;;;;10463225;28;20162;-66
2022/03/09 18:47:50;;;;;;;16.20;8.43;;;10.90;65.30;;;;;;10463826;28;20432;-64
2022/03/09 18:52:51;;;;;;;16.83;8.43;;;10.90;65.40;;;;;;10472642;28;20021;-67
2022/03/09 18:57:52;;;;;;;13.65;8.13;;;10.90;65.60;;;;;;10471900;28;20393;-70
2022/03/09 19:02:52;;;;;;;18.50;8.40;;;10.80;65.70;;;;;;10475640;28;20017;-69
2022/03/09 19:07:53;;;;;;;16.42;8.43;;;10.80;65.80;;;;;;10484488;28;20033;-69
2022/03/09 19:12:54;;;;;;;15.15;8.57;;;10.80;65.80;;;;;;10484619;28;20020;-69
2022/03/09 19:17:55;;;;;;;19.42;8.73;;;10.70;65.90;;;;;;10487856;28;20440;-68
2022/03/09 19:22:56;;;;;;;17.38;9.18;;;10.70;66.00;;;;;;10485153;28;20035;-69
2022/03/09 19:27:56;;;;;;;17.05;8.73;;;10.60;66.10;;;;;;10483099;28;20021;-69
2022/03/09 19:32:57;;;;;;;18.85;9.32;;;10.60;66.20;;;;;;10483635;28;20465;-69
2022/03/09 19:37:58;;;;;;;18.98;9.15;;;10.60;66.30;;;;;;10484718;28;20548;-71
2022/03/09 19:42:59;;;;;;;23.98;10.48;;;10.50;66.40;;;;;;10481760;28;20055;-70
2022/03/09 19:47:59;;;;;;;29.85;11.52;;;10.50;66.40;;;;;;10474345;28;20128;-67
2022/03/09 19:53:00;;;;;;;28.30;11.40;;;10.40;66.30;;;;;;10478596;28;20017;-69
2022/03/09 19:58:01;;;;;;;28.80;13.02;;;10.40;66.30;;;;;;10476215;28;20303;-69
2022/03/09 20:03:03;;;;;;;32.38;14.82;;;10.30;66.40;;;;;;10478937;28;20045;-68
2022/03/09 20:08:04;;;;;;;31.15;12.75;;;10.30;66.50;;;;;;10476409;28;20373;-69
2022/03/09 20:13:05;;;;;;;33.83;15.27;;;10.30;66.70;;;;;;10468420;28;20121;-69
2022/03/09 20:18:05;;;;;;;32.15;15.75;;;10.20;66.70;;;;;;10461125;28;20238;-70
2022/03/09 20:23:06;;;;;;;30.77;14.65;;;10.20;66.70;;;;;;10461373;28;20377;-69
2022/03/09 20:28:07;;;;;;;33.15;15.15;;;10.20;67.00;;;;;;10464912;28;20063;-70
2022/03/09 20:33:08;;;;;;;34.15;15.15;;;10.10;66.90;;;;;;10460324;28;20113;-71
2022/03/09 20:38:09;;;;;;;30.42;14.88;;;10.10;67.00;;;;;;10455171;28;20066;-69
2022/03/09 20:43:10;;;;;;;32.10;14.15;;;10.00;66.90;;;;;;10460642;28;20048;-67
2022/03/09 20:48:11;;;;;;;33.75;14.85;;;10.00;66.90;;;;;;10454998;28;20370;-65
2022/03/09 20:53:11;;;;;;;29.02;13.57;;;10.00;66.90;;;;;;10457304;28;20437;-69
2022/03/09 20:58:12;;;;;;;26.67;13.55;;;9.90;67.00;;;;;;10456805;28;20078;-71
2022/03/09 21:03:13;;;;;;;26.08;12.27;;;9.90;67.00;;;;;;10481144;28;20028;-64
2022/03/09 21:08:14;;;;;;;26.20;12.68;;;9.80;67.10;;;;;;10482624;28;20382;-70
2022/03/09 21:13:15;;;;;;;26.73;12.80;;;9.80;67.20;;;;;;10480529;28;20536;-71
2022/03/09 21:18:16;;;;;;;25.10;11.13;;;9.80;67.40;;;;;;10481608;28;20095;-68
2022/03/09 21:23:16;;;;;;;24.67;12.02;;;9.80;67.50;;;;;;10481950;28;20025;-71
2022/03/09 21:28:17;;;;;;;25.42;11.65;;;9.70;67.50;;;;;;10464586;28;20507;-69
2022/03/09 21:33:18;;;;;;;26.63;11.63;;;9.70;67.70;;;;;;10458154;28;20078;-67
2022/03/09 21:38:18;;;;;;;21.30;11.27;;;9.60;67.70;;;;;;10452228;28;20658;-68
2022/03/09 21:43:19;;;;;;;22.67;11.65;;;9.60;67.80;;;;;;10459523;28;20052;-70
2022/03/09 21:48:20;;;;;;;21.30;10.98;;;9.60;67.90;;;;;;10459026;28;20036;-62
2022/03/09 21:53:21;;;;;;;23.20;11.40;;;9.50;67.90;;;;;;10455882;28;20024;-71
2022/03/09 21:58:22;;;;;;;21.90;11.25;;;9.50;68.00;;;;;;10451631;28;20503;-68
2022/03/09 22:03:23;;;;;;;19.08;10.68;;;9.50;68.10;;;;;;10468399;28;20083;-70
2022/03/09 22:08:23;;;;;;;21.75;10.95;;;9.40;67.90;;;;;;10484824;28;20028;-69
2022/03/09 22:13:24;;;;;;;23.20;11.07;;;9.40;67.80;;;;;;10481721;28;20041;-62
2022/03/09 22:18:25;;;;;;;22.08;10.18;;;8.80;68.30;;;;;;10453160;28;20053;-64
2022/03/09 22:23:26;;;;;;;21.75;10.98;;;9.30;68.10;;;;;;10475296;28;20032;-65
2022/03/09 22:28:27;;;;;;;24.95;11.90;;;9.30;68.20;;;;;;10482076;28;20075;-69
2022/03/09 22:33:28;;;;;;;19.40;10.40;;;9.30;68.30;;;;;;10476525;28;20119;-65
2022/03/09 22:38:29;;;;;;;22.55;10.98;;;9.20;68.30;;;;;;10480363;28;20035;-71
2022/03/09 22:43:29;;;;;;;20.52;10.25;;;9.20;68.30;;;;;;10490459;28;20044;-71
2022/03/09 22:48:30;;;;;;;19.95;10.43;;;9.30;68.40;;;;;;10496863;28;20420;-70
2022/03/09 22:53:31;;;;;;;19.42;10.65;;;9.10;68.40;;;;;;10493590;28;20036;-65
2022/03/09 22:58:32;;;;;;;18.95;10.05;;;9.10;68.40;;;;;;10493734;28;20078;-65
2022/03/09 23:03:33;;;;;;;17.25;9.60;;;9.10;68.50;;;;;;10492998;28;20478;-70
2022/03/09 23:08:33;;;;;;;19.83;10.32;;;9.10;68.50;;;;;;10482992;28;20052;-68
2022/03/09 23:13:34;;;;;;;20.88;10.45;;;9.00;69.10;;;;;;10484363;28;20025;-69
2022/03/09 23:18:36;;;;;;;18.88;9.82;;;9.00;68.50;;;;;;10492333;28;20036;-70
2022/03/09 23:23:37;;;;;;;18.83;10.07;;;9.00;68.50;;;;;;10489503;28;20078;-71
2022/03/09 23:28:37;;;;;;;21.00;10.05;;;8.90;68.40;;;;;;10486505;28;20029;-70
2022/03/09 23:33:38;;;;;;;19.85;9.63;;;8.90;68.40;;;;;;10489145;28;20454;-70
2022/03/09 23:38:39;;;;;;;18.25;9.57;;;8.90;68.40;;;;;;10484909;28;20068;-69
2022/03/09 23:43:39;;;;;;;18.00;10.20;;;8.90;68.40;;;;;;10489121;28;20052;-71
2022/03/09 23:48:40;;;;;;;18.90;9.00;;;8.90;68.40;;;;;;10489022;28;20502;-70
2022/03/09 23:53:41;;;;;;;19.38;9.52;;;8.80;68.40;;;;;;10488125;28;20038;-71
2022/03/09 23:58:42;;;;;;;20.40;9.65;;;8.80;68.40;;;;;;10488145;28;20039;-68
